createdAt,value
2022-08-05T00:05:00.954Z,7.07
2022-08-05T00:10:10.749Z,6.72
2022-08-05T00:15:56.099Z,6.10
2022-08-05T00:20:36.451Z,5.40
2022-08-05T00:25:46.011Z,4.43
2022-08-05T00:30:52.116Z,4.28
2022-08-05T00:36:16.109Z,3.83
2022-08-05T00:41:52.053Z,3.58
2022-08-05T00:47:01.602Z,3.70
2022-08-05T00:52:07.034Z,3.42
2022-08-05T00:57:11.231Z,3.30
2022-08-05T01:02:14.053Z,2.97
2022-08-05T01:07:19.515Z,3.00
2022-08-05T01:12:29.829Z,2.33
2022-08-05T01:17:40.311Z,2.45
2022-08-05T01:23:14.409Z,2.65
2022-08-05T01:28:25.631Z,2.30
2022-08-05T01:33:35.490Z,2.40
2022-08-05T01:38:39.413Z,2.50
2022-08-05T01:43:44.191Z,2.28
2022-08-05T01:48:55.667Z,2.40
2022-08-05T01:54:02.127Z,2.20
2022-08-05T01:59:11.059Z,2.40
2022-08-05T02:04:17.830Z,2.63
2022-08-05T02:09:20.978Z,2.55
2022-08-05T02:14:31.906Z,2.55
2022-08-05T02:19:46.983Z,2.70
2022-08-05T02:24:54.195Z,2.63
2022-08-05T02:30:02.039Z,2.47
2022-08-05T02:35:15.036Z,2.60
2022-08-05T02:40:27.458Z,2.47
2022-08-05T02:45:52.977Z,4.28
2022-08-05T02:50:58.602Z,3.78
2022-08-05T02:56:03.363Z,3.60
2022-08-05T03:01:19.365Z,4.10
2022-08-05T03:06:55.668Z,4.30
2022-08-05T03:11:56.620Z,3.72
2022-08-05T03:17:06.095Z,3.80
2022-08-05T03:22:16.723Z,4.45
2022-08-05T03:27:22.472Z,3.83
2022-08-05T03:32:34.209Z,4.18
2022-08-05T03:37:46.212Z,4.50
2022-08-05T03:42:52.565Z,4.65
2022-08-05T03:47:58.353Z,4.63
2022-08-05T03:55:51.034Z,3.85
2022-08-05T03:58:36.551Z,4.30
2022-08-05T04:04:09.179Z,3.95
2022-08-05T04:09:08.521Z,4.18
2022-08-05T04:14:11.666Z,4.20
2022-08-05T04:19:22.595Z,5.00
2022-08-05T04:24:26.261Z,4.10
2022-08-05T04:29:30.571Z,4.00
2022-08-05T04:34:42.971Z,4.35
2022-08-05T04:39:46.350Z,4.45
2022-08-05T04:44:55.817Z,4.30
2022-08-05T04:50:02.582Z,4.47
2022-08-05T04:55:15.215Z,4.78
2022-08-05T05:00:19.246Z,5.00
2022-08-05T05:05:29.147Z,4.70
2022-08-05T05:10:33.773Z,4.38
2022-08-05T05:15:56.689Z,4.07
2022-08-05T05:21:01.166Z,4.35
2022-08-05T05:26:04.095Z,4.50
2022-08-05T05:31:08.968Z,4.40
2022-08-05T05:36:13.245Z,4.05
2022-08-05T05:41:17.595Z,4.30
2022-08-05T05:46:21.894Z,4.55
2022-08-05T05:51:28.054Z,4.68
2022-08-05T05:56:34.572Z,4.90
2022-08-05T06:01:40.108Z,4.90
2022-08-05T06:06:47.339Z,5.00
2022-08-05T06:11:59.245Z,5.35
2022-08-05T06:17:21.898Z,4.30
2022-08-05T06:22:30.011Z,4.00
2022-08-05T06:28:11.407Z,3.72
2022-08-05T06:32:55.731Z,3.72
2022-08-05T06:38:04.279Z,3.55
2022-08-05T06:43:59.831Z,3.35
2022-08-05T06:48:55.689Z,2.90
2022-08-05T06:54:04.201Z,3.60
2022-08-05T06:59:09.902Z,2.95
2022-08-05T07:09:24.843Z,3.17
2022-08-05T07:14:45.476Z,3.38
2022-08-05T07:20:16.657Z,3.20
2022-08-05T07:25:54.391Z,2.70
2022-08-05T07:30:38.679Z,2.60
2022-08-05T07:36:04.400Z,3.20
2022-08-05T07:42:08.760Z,3.20
2022-08-05T07:46:33.763Z,2.70
2022-08-05T07:51:48.583Z,2.72
2022-08-05T07:57:14.602Z,2.80
2022-08-05T08:02:26.812Z,2.80
2022-08-05T08:07:39.582Z,3.05
2022-08-05T08:12:58.784Z,2.95
2022-08-05T08:18:02.032Z,2.80
2022-08-05T08:23:07.471Z,3.13
2022-08-05T08:28:36.808Z,3.00
2022-08-05T08:33:54.427Z,2.90
2022-08-05T08:38:57.515Z,2.33
2022-08-05T08:45:18.599Z,2.60
2022-08-05T08:50:18.072Z,2.47
2022-08-05T08:54:56.914Z,2.47
2022-08-05T09:00:02.174Z,2.55
2022-08-05T09:05:17.509Z,2.45
2022-08-05T09:10:21.960Z,2.33
2022-08-05T09:15:32.352Z,2.95
2022-08-05T09:20:41.739Z,3.78
2022-08-05T09:25:59.970Z,2.80
2022-08-05T09:31:44.139Z,3.05
2022-08-05T09:36:45.927Z,3.25
2022-08-05T09:42:01.790Z,2.70
2022-08-05T09:47:15.531Z,3.33
2022-08-05T09:52:25.840Z,3.55
2022-08-05T09:57:35.233Z,3.20
2022-08-05T10:02:45.451Z,2.97
2022-08-05T10:08:35.538Z,2.55
2022-08-05T10:13:31.841Z,2.70
2022-08-05T10:18:49.730Z,2.50
2022-08-05T10:24:00.309Z,2.80
2022-08-05T10:29:03.730Z,2.20
2022-08-05T10:34:08.715Z,2.88
2022-08-05T10:40:03.219Z,2.70
2022-08-05T10:50:32.176Z,3.08
2022-08-05T10:56:03.389Z,3.05
2022-08-05T11:01:03.139Z,2.30
2022-08-05T11:06:16.210Z,4.35
2022-08-05T11:11:44.858Z,4.82
2022-08-05T11:17:59.859Z,4.82
2022-08-05T11:22:58.066Z,3.47
2022-08-05T11:28:43.158Z,2.40
2022-08-05T11:33:58.625Z,2.53
2022-08-05T11:39:02.902Z,3.13
2022-08-05T11:44:08.491Z,3.20
2022-08-05T11:49:14.619Z,2.58
2022-08-05T11:54:33.094Z,2.97
2022-08-05T11:59:49.471Z,3.42
2022-08-05T12:04:59.330Z,3.33
2022-08-05T12:10:06.370Z,3.47
2022-08-05T12:15:20.772Z,3.55
2022-08-05T12:20:41.583Z,3.67
2022-08-05T12:25:53.554Z,3.33
2022-08-05T12:30:57.703Z,3.30
2022-08-05T12:36:08.181Z,2.10
2022-08-05T12:41:16.129Z,1.83
2022-08-05T12:46:28.124Z,1.80
2022-08-05T12:52:12.081Z,1.70
2022-08-05T12:56:58.734Z,1.88
2022-08-05T13:02:07.684Z,1.90
2022-08-05T13:07:16.114Z,1.50
2022-08-05T13:12:23.032Z,1.98
2022-08-05T13:17:41.674Z,1.80
2022-08-05T13:22:49.827Z,2.00
2022-08-05T13:27:56.090Z,1.58
2022-08-05T13:38:06.033Z,1.50
2022-08-05T13:43:12.257Z,2.25
2022-08-05T13:48:57.308Z,1.70
2022-08-05T13:53:48.086Z,1.88
2022-08-05T13:58:53.856Z,1.75
2022-08-05T14:04:17.055Z,1.98
2022-08-05T14:09:21.808Z,1.70
2022-08-05T14:14:30.879Z,1.73
2022-08-05T14:19:55.281Z,1.88
2022-08-05T14:24:59.358Z,2.15
2022-08-05T14:30:04.288Z,1.85
2022-08-05T14:35:10.612Z,1.90
2022-08-05T14:40:16.902Z,1.90
2022-08-05T14:45:21.402Z,2.70
2022-08-05T14:50:26.057Z,2.60
2022-08-05T14:55:39.283Z,2.60
2022-08-05T15:00:59.806Z,2.10
2022-08-05T15:06:12.935Z,2.47
2022-08-05T15:11:18.414Z,2.47
2022-08-05T15:16:23.589Z,2.67
2022-08-05T15:21:26.703Z,3.00
2022-08-05T15:26:33.394Z,3.07
2022-08-05T15:31:37.665Z,3.33
2022-08-05T15:36:40.723Z,3.65
2022-08-05T15:41:57.591Z,2.45
2022-08-05T15:47:04.251Z,2.30
2022-08-05T15:52:16.282Z,2.85
2022-08-05T15:57:20.737Z,3.08
2022-08-05T16:02:25.431Z,1.90
2022-08-05T16:07:29.649Z,1.63
2022-08-05T16:12:32.653Z,1.65
2022-08-05T16:17:36.894Z,1.90
2022-08-05T16:22:39.777Z,1.17
2022-08-05T16:28:00.831Z,1.10
2022-08-05T16:33:08.810Z,0.80
2022-08-05T16:38:18.448Z,1.13
2022-08-05T16:43:30.217Z,1.63
2022-08-05T16:48:35.621Z,0.98
2022-08-05T16:54:05.728Z,0.90
2022-08-05T16:59:07.598Z,0.90
2022-08-05T17:09:18.172Z,0.90
2022-08-05T17:14:34.347Z,1.05
2022-08-05T17:19:43.761Z,0.82
2022-08-05T17:24:57.943Z,0.70
2022-08-05T17:30:02.370Z,0.90
2022-08-05T17:35:08.207Z,0.85
2022-08-05T17:40:22.453Z,0.80
2022-08-05T17:45:38.245Z,1.10
2022-08-05T17:50:43.179Z,1.30
2022-08-05T17:55:46.072Z,0.90
2022-08-05T18:00:51.035Z,0.90
2022-08-05T18:05:55.817Z,1.05
2022-08-05T18:11:04.982Z,1.08
2022-08-05T18:16:09.574Z,0.63
2022-08-05T18:31:33.140Z,0.65
2022-08-05T18:36:39.652Z,0.80
2022-08-05T18:41:56.549Z,1.10
2022-08-05T18:47:04.817Z,0.85
2022-08-05T18:52:33.154Z,0.80
2022-08-05T18:57:50.156Z,0.93
2022-08-05T19:02:57.865Z,0.63
2022-08-05T19:08:12.216Z,0.68
2022-08-05T19:13:16.935Z,0.85
2022-08-05T19:18:22.505Z,0.80
2022-08-05T19:24:05.655Z,1.20
2022-08-05T19:28:49.745Z,1.02
2022-08-05T19:33:56.539Z,1.58
2022-08-05T19:39:01.912Z,0.70
2022-08-05T19:44:12.767Z,1.15
2022-08-05T19:49:17.816Z,1.00
2022-08-05T19:54:31.226Z,0.90
2022-08-05T20:00:00.437Z,1.45
2022-08-05T20:04:58.788Z,0.70
2022-08-05T20:10:04.945Z,0.73
2022-08-05T20:15:48.987Z,1.00
2022-08-05T20:20:44.010Z,0.88
2022-08-05T20:25:49.212Z,0.85
2022-08-05T20:30:55.514Z,0.90
2022-08-05T20:35:58.539Z,0.90
2022-08-05T20:41:04.646Z,1.00
2022-08-05T20:46:18.376Z,1.10
2022-08-05T20:51:27.782Z,1.10
2022-08-05T20:56:41.911Z,0.80
2022-08-05T21:01:45.622Z,1.35
2022-08-05T21:06:48.569Z,1.00
2022-08-05T21:12:09.120Z,1.00
2022-08-05T21:17:14.737Z,2.58
2022-08-05T21:22:18.492Z,1.05
2022-08-05T21:27:27.197Z,1.17
2022-08-05T21:32:30.517Z,1.20
2022-08-05T21:37:35.005Z,0.98
2022-08-05T21:42:46.731Z,1.08
2022-08-05T21:47:55.940Z,1.10
2022-08-05T21:53:04.529Z,0.90
2022-08-05T21:58:12.705Z,1.20
2022-08-05T22:03:15.545Z,1.20
2022-08-05T22:08:28.114Z,1.05
2022-08-05T22:14:32.367Z,1.00
2022-08-05T22:19:57.344Z,1.08
2022-08-05T22:24:59.463Z,1.02
2022-08-05T22:30:04.299Z,1.15
2022-08-05T22:35:07.820Z,0.90
2022-08-05T22:40:11.156Z,1.05
2022-08-05T22:45:21.350Z,1.00
2022-08-05T22:50:27.757Z,1.10
2022-08-05T22:55:37.182Z,1.38
2022-08-05T23:00:56.825Z,1.00
2022-08-05T23:05:59.966Z,0.95
2022-08-05T23:11:03.871Z,1.15
2022-08-05T23:16:08.049Z,1.10
2022-08-05T23:21:11.323Z,1.10
2022-08-05T23:26:19.928Z,1.10
2022-08-05T23:31:25.878Z,1.10
2022-08-05T23:36:38.575Z,1.40
2022-08-05T23:41:48.596Z,1.30
2022-08-05T23:46:53.197Z,1.33
2022-08-05T23:52:16.472Z,1.35
2022-08-05T23:57:19.360Z,1.58
